sensor_id;sensor_type;location;lat;lon;timestamp;P1;durP1;ratioP1;P2;durP2;ratioP2
9007;SDS011;62813;51.424;6.762;2022-12-17T00:00:29;95.17;;;39.63;;
9007;SDS011;62813;51.424;6.762;2022-12-17T00:03:14;95.80;;;41.13;;
9007;SDS011;62813;51.424;6.762;2022-12-17T00:06:00;98.17;;;39.63;;
9007;SDS011;62813;51.424;6.762;2022-12-17T00:08:45;99.73;;;40.30;;
9007;SDS011;62813;51.424;6.762;2022-12-17T00:11:30;97.97;;;40.20;;
9007;SDS011;62813;51.424;6.762;2022-12-17T00:14:15;97.83;;;41.80;;
9007;SDS011;62813;51.424;6.762;2022-12-17T00:17:00;89.27;;;37.27;;
9007;SDS011;62813;51.424;6.762;2022-12-17T00:19:47;94.10;;;40.90;;
9007;SDS011;62813;51.424;6.762;2022-12-17T00:22:33;87.07;;;36.93;;
9007;SDS011;62813;51.424;6.762;2022-12-17T00:25:18;81.53;;;35.83;;
9007;SDS011;62813;51.424;6.762;2022-12-17T00:28:07;96.30;;;37.97;;
9007;SDS011;62813;51.424;6.762;2022-12-17T00:30:54;95.23;;;36.33;;
9007;SDS011;62813;51.424;6.762;2022-12-17T00:33:39;83.30;;;36.27;;
9007;SDS011;62813;51.424;6.762;2022-12-17T00:36:24;94.97;;;37.63;;
9007;SDS011;62813;51.424;6.762;2022-12-17T00:39:09;97.77;;;39.03;;
9007;SDS011;62813;51.424;6.762;2022-12-17T00:41:55;94.13;;;38.50;;
9007;SDS011;62813;51.424;6.762;2022-12-17T00:44:40;84.60;;;36.37;;
9007;SDS011;62813;51.424;6.762;2022-12-17T00:47:26;82.43;;;37.50;;
9007;SDS011;62813;51.424;6.762;2022-12-17T00:50:11;99.50;;;38.87;;
9007;SDS011;62813;51.424;6.762;2022-12-17T00:52:55;96.77;;;38.73;;
9007;SDS011;62813;51.424;6.762;2022-12-17T00:55:40;85.90;;;37.10;;
9007;SDS011;62813;51.424;6.762;2022-12-17T00:58:26;101.43;;;37.37;;
9007;SDS011;62813;51.424;6.762;2022-12-17T01:01:10;99.13;;;38.47;;
9007;SDS011;62813;51.424;6.762;2022-12-17T01:03:56;85.13;;;34.27;;
9007;SDS011;62813;51.424;6.762;2022-12-17T01:06:41;83.47;;;34.73;;
9007;SDS011;62813;51.424;6.762;2022-12-17T01:09:26;88.20;;;34.67;;
9007;SDS011;62813;51.424;6.762;2022-12-17T01:12:10;94.27;;;37.77;;
9007;SDS011;62813;51.424;6.762;2022-12-17T01:14:55;94.07;;;36.97;;
9007;SDS011;62813;51.424;6.762;2022-12-17T01:17:40;87.93;;;33.73;;
9007;SDS011;62813;51.424;6.762;2022-12-17T01:20:25;86.47;;;35.53;;
9007;SDS011;62813;51.424;6.762;2022-12-17T01:23:10;80.37;;;35.47;;
9007;SDS011;62813;51.424;6.762;2022-12-17T01:25:56;83.37;;;36.77;;
9007;SDS011;62813;51.424;6.762;2022-12-17T01:28:41;90.07;;;37.40;;
9007;SDS011;62813;51.424;6.762;2022-12-17T01:31:26;83.20;;;34.20;;
9007;SDS011;62813;51.424;6.762;2022-12-17T01:34:11;89.67;;;35.70;;
9007;SDS011;62813;51.424;6.762;2022-12-17T01:36:57;91.23;;;36.40;;
9007;SDS011;62813;51.424;6.762;2022-12-17T01:39:42;85.37;;;34.07;;
9007;SDS011;62813;51.424;6.762;2022-12-17T01:42:27;87.97;;;35.50;;
9007;SDS011;62813;51.424;6.762;2022-12-17T01:45:24;92.57;;;34.80;;
9007;SDS011;62813;51.424;6.762;2022-12-17T01:48:14;103.00;;;37.63;;
9007;SDS011;62813;51.424;6.762;2022-12-17T01:51:00;91.27;;;34.57;;
9007;SDS011;62813;51.424;6.762;2022-12-17T01:53:47;92.70;;;35.97;;
9007;SDS011;62813;51.424;6.762;2022-12-17T01:56:35;86.37;;;33.70;;
9007;SDS011;62813;51.424;6.762;2022-12-17T01:59:23;77.60;;;32.23;;
9007;SDS011;62813;51.424;6.762;2022-12-17T02:02:17;78.93;;;31.13;;
9007;SDS011;62813;51.424;6.762;2022-12-17T02:05:02;78.73;;;31.90;;
9007;SDS011;62813;51.424;6.762;2022-12-17T02:11:17;76.37;;;31.33;;
9007;SDS011;62813;51.424;6.762;2022-12-17T02:17:24;66.43;;;30.57;;
9007;SDS011;62813;51.424;6.762;2022-12-17T02:29:18;66.87;;;27.90;;
9007;SDS011;62813;51.424;6.762;2022-12-17T02:32:06;68.50;;;29.40;;
9007;SDS011;62813;51.424;6.762;2022-12-17T02:34:54;72.13;;;28.93;;
9007;SDS011;62813;51.424;6.762;2022-12-17T02:37:46;65.03;;;28.47;;
9007;SDS011;62813;51.424;6.762;2022-12-17T02:40:32;66.80;;;29.03;;
9007;SDS011;62813;51.424;6.762;2022-12-17T02:43:22;69.80;;;30.40;;
9007;SDS011;62813;51.424;6.762;2022-12-17T02:46:11;68.13;;;29.90;;
9007;SDS011;62813;51.424;6.762;2022-12-17T02:48:57;67.77;;;29.33;;
9007;SDS011;62813;51.424;6.762;2022-12-17T02:51:43;63.87;;;27.67;;
9007;SDS011;62813;51.424;6.762;2022-12-17T02:54:30;68.33;;;29.17;;
9007;SDS011;62813;51.424;6.762;2022-12-17T02:57:17;59.67;;;27.23;;
9007;SDS011;62813;51.424;6.762;2022-12-17T03:00:08;61.93;;;27.63;;
9007;SDS011;62813;51.424;6.762;2022-12-17T03:02:54;64.40;;;27.73;;
9007;SDS011;62813;51.424;6.762;2022-12-17T03:05:39;65.20;;;27.30;;
9007;SDS011;62813;51.424;6.762;2022-12-17T03:08:25;69.10;;;29.87;;
9007;SDS011;62813;51.424;6.762;2022-12-17T03:11:09;63.17;;;28.13;;
9007;SDS011;62813;51.424;6.762;2022-12-17T03:13:54;66.23;;;27.03;;
9007;SDS011;62813;51.424;6.762;2022-12-17T03:16:39;61.50;;;26.93;;
9007;SDS011;62813;51.424;6.762;2022-12-17T03:19:25;75.07;;;28.17;;
9007;SDS011;62813;51.424;6.762;2022-12-17T03:22:12;60.20;;;27.50;;
9007;SDS011;62813;51.424;6.762;2022-12-17T03:24:58;71.80;;;28.73;;
9007;SDS011;62813;51.424;6.762;2022-12-17T03:27:43;69.10;;;29.50;;
9007;SDS011;62813;51.424;6.762;2022-12-17T03:30:28;67.57;;;28.13;;
9007;SDS011;62813;51.424;6.762;2022-12-17T03:33:14;69.87;;;30.37;;
9007;SDS011;62813;51.424;6.762;2022-12-17T03:36:00;68.83;;;27.97;;
9007;SDS011;62813;51.424;6.762;2022-12-17T03:38:46;72.37;;;28.87;;
9007;SDS011;62813;51.424;6.762;2022-12-17T03:41:31;78.97;;;29.67;;
9007;SDS011;62813;51.424;6.762;2022-12-17T03:44:16;71.00;;;29.33;;
9007;SDS011;62813;51.424;6.762;2022-12-17T03:47:01;66.47;;;27.73;;
9007;SDS011;62813;51.424;6.762;2022-12-17T03:49:46;86.10;;;29.90;;
9007;SDS011;62813;51.424;6.762;2022-12-17T03:52:31;67.17;;;28.13;;
9007;SDS011;62813;51.424;6.762;2022-12-17T03:55:15;70.83;;;29.13;;
9007;SDS011;62813;51.424;6.762;2022-12-17T03:58:01;75.47;;;27.97;;
9007;SDS011;62813;51.424;6.762;2022-12-17T04:00:46;65.80;;;26.90;;
9007;SDS011;62813;51.424;6.762;2022-12-17T04:03:31;72.47;;;29.80;;
9007;SDS011;62813;51.424;6.762;2022-12-17T04:06:16;69.37;;;27.90;;
9007;SDS011;62813;51.424;6.762;2022-12-17T04:09:01;71.10;;;28.77;;
9007;SDS011;62813;51.424;6.762;2022-12-17T04:11:47;65.03;;;26.97;;
9007;SDS011;62813;51.424;6.762;2022-12-17T04:14:32;65.20;;;26.93;;
9007;SDS011;62813;51.424;6.762;2022-12-17T04:17:17;74.23;;;27.83;;
9007;SDS011;62813;51.424;6.762;2022-12-17T04:20:03;77.23;;;29.60;;
9007;SDS011;62813;51.424;6.762;2022-12-17T04:22:48;66.83;;;28.63;;
9007;SDS011;62813;51.424;6.762;2022-12-17T04:25:33;61.40;;;27.67;;
9007;SDS011;62813;51.424;6.762;2022-12-17T04:28:18;61.93;;;28.23;;
9007;SDS011;62813;51.424;6.762;2022-12-17T04:31:04;55.57;;;25.93;;
9007;SDS011;62813;51.424;6.762;2022-12-17T04:33:50;55.13;;;25.20;;
9007;SDS011;62813;51.424;6.762;2022-12-17T04:36:35;55.10;;;26.40;;
9007;SDS011;62813;51.424;6.762;2022-12-17T04:39:22;51.17;;;23.83;;
9007;SDS011;62813;51.424;6.762;2022-12-17T04:42:08;51.83;;;24.27;;
9007;SDS011;62813;51.424;6.762;2022-12-17T04:44:53;55.07;;;24.23;;
9007;SDS011;62813;51.424;6.762;2022-12-17T04:47:37;62.70;;;25.93;;
9007;SDS011;62813;51.424;6.762;2022-12-17T04:50:22;51.77;;;24.17;;
9007;SDS011;62813;51.424;6.762;2022-12-17T04:53:08;48.13;;;23.93;;
9007;SDS011;62813;51.424;6.762;2022-12-17T04:55:54;51.90;;;23.23;;
9007;SDS011;62813;51.424;6.762;2022-12-17T04:58:40;52.80;;;24.77;;
9007;SDS011;62813;51.424;6.762;2022-12-17T05:01:24;51.47;;;23.70;;
9007;SDS011;62813;51.424;6.762;2022-12-17T05:04:30;51.43;;;22.57;;
9007;SDS011;62813;51.424;6.762;2022-12-17T05:07:15;50.77;;;23.27;;
9007;SDS011;62813;51.424;6.762;2022-12-17T05:10:00;49.27;;;24.00;;
9007;SDS011;62813;51.424;6.762;2022-12-17T05:12:45;48.07;;;23.50;;
9007;SDS011;62813;51.424;6.762;2022-12-17T05:15:30;45.57;;;21.67;;
9007;SDS011;62813;51.424;6.762;2022-12-17T05:18:18;47.60;;;22.93;;
9007;SDS011;62813;51.424;6.762;2022-12-17T05:21:04;47.83;;;22.67;;
9007;SDS011;62813;51.424;6.762;2022-12-17T05:23:50;45.90;;;23.03;;
9007;SDS011;62813;51.424;6.762;2022-12-17T05:26:35;53.13;;;25.63;;
9007;SDS011;62813;51.424;6.762;2022-12-17T05:29:22;52.90;;;26.27;;
9007;SDS011;62813;51.424;6.762;2022-12-17T05:32:07;48.20;;;24.00;;
9007;SDS011;62813;51.424;6.762;2022-12-17T05:34:52;45.07;;;23.17;;
9007;SDS011;62813;51.424;6.762;2022-12-17T05:37:37;45.87;;;23.00;;
9007;SDS011;62813;51.424;6.762;2022-12-17T05:40:22;50.60;;;23.83;;
9007;SDS011;62813;51.424;6.762;2022-12-17T05:43:09;44.47;;;23.03;;
9007;SDS011;62813;51.424;6.762;2022-12-17T05:45:57;44.63;;;23.03;;
9007;SDS011;62813;51.424;6.762;2022-12-17T05:48:43;45.23;;;23.87;;
9007;SDS011;62813;51.424;6.762;2022-12-17T05:51:28;46.47;;;23.83;;
9007;SDS011;62813;51.424;6.762;2022-12-17T05:54:14;42.63;;;21.47;;
9007;SDS011;62813;51.424;6.762;2022-12-17T05:56:59;39.10;;;21.20;;
9007;SDS011;62813;51.424;6.762;2022-12-17T05:59:44;41.63;;;22.00;;
9007;SDS011;62813;51.424;6.762;2022-12-17T06:02:29;39.67;;;19.83;;
9007;SDS011;62813;51.424;6.762;2022-12-17T06:05:15;39.33;;;21.43;;
9007;SDS011;62813;51.424;6.762;2022-12-17T06:08:06;44.13;;;21.67;;
9007;SDS011;62813;51.424;6.762;2022-12-17T06:10:52;53.40;;;23.33;;
9007;SDS011;62813;51.424;6.762;2022-12-17T06:13:38;45.87;;;21.97;;
9007;SDS011;62813;51.424;6.762;2022-12-17T06:16:23;40.10;;;22.33;;
9007;SDS011;62813;51.424;6.762;2022-12-17T06:19:08;45.20;;;23.20;;
9007;SDS011;62813;51.424;6.762;2022-12-17T06:21:54;44.10;;;21.63;;
9007;SDS011;62813;51.424;6.762;2022-12-17T06:24:39;46.17;;;23.57;;
9007;SDS011;62813;51.424;6.762;2022-12-17T06:27:24;45.17;;;22.60;;
9007;SDS011;62813;51.424;6.762;2022-12-17T06:30:09;48.40;;;22.57;;
9007;SDS011;62813;51.424;6.762;2022-12-17T06:33:04;49.93;;;22.13;;
9007;SDS011;62813;51.424;6.762;2022-12-17T06:35:52;42.53;;;23.00;;
9007;SDS011;62813;51.424;6.762;2022-12-17T06:38:46;49.50;;;24.10;;
9007;SDS011;62813;51.424;6.762;2022-12-17T06:43:59;50.50;;;23.70;;
9007;SDS011;62813;51.424;6.762;2022-12-17T06:46:44;45.37;;;22.93;;
9007;SDS011;62813;51.424;6.762;2022-12-17T06:49:29;46.80;;;23.13;;
9007;SDS011;62813;51.424;6.762;2022-12-17T06:52:15;47.23;;;23.13;;
9007;SDS011;62813;51.424;6.762;2022-12-17T06:55:00;45.90;;;22.83;;
9007;SDS011;62813;51.424;6.762;2022-12-17T06:57:45;54.00;;;25.57;;
9007;SDS011;62813;51.424;6.762;2022-12-17T07:00:30;57.53;;;24.60;;
9007;SDS011;62813;51.424;6.762;2022-12-17T07:03:15;48.40;;;23.93;;
9007;SDS011;62813;51.424;6.762;2022-12-17T07:06:01;48.73;;;23.17;;
9007;SDS011;62813;51.424;6.762;2022-12-17T07:08:46;44.97;;;22.73;;
9007;SDS011;62813;51.424;6.762;2022-12-17T07:11:31;41.17;;;22.47;;
9007;SDS011;62813;51.424;6.762;2022-12-17T07:14:16;47.17;;;22.67;;
9007;SDS011;62813;51.424;6.762;2022-12-17T07:17:01;45.10;;;21.90;;
9007;SDS011;62813;51.424;6.762;2022-12-17T07:19:46;43.57;;;21.73;;
9007;SDS011;62813;51.424;6.762;2022-12-17T07:22:31;44.23;;;21.80;;
9007;SDS011;62813;51.424;6.762;2022-12-17T07:25:15;45.00;;;21.97;;
9007;SDS011;62813;51.424;6.762;2022-12-17T07:28:00;43.40;;;21.87;;
9007;SDS011;62813;51.424;6.762;2022-12-17T07:30:45;44.57;;;21.17;;
9007;SDS011;62813;51.424;6.762;2022-12-17T07:33:38;44.20;;;21.23;;
9007;SDS011;62813;51.424;6.762;2022-12-17T07:36:22;37.10;;;20.80;;
9007;SDS011;62813;51.424;6.762;2022-12-17T07:39:07;44.03;;;22.13;;
9007;SDS011;62813;51.424;6.762;2022-12-17T07:41:52;38.40;;;19.63;;
9007;SDS011;62813;51.424;6.762;2022-12-17T07:44:37;50.53;;;21.47;;
9007;SDS011;62813;51.424;6.762;2022-12-17T07:47:30;37.97;;;20.70;;
9007;SDS011;62813;51.424;6.762;2022-12-17T07:50:15;40.40;;;20.77;;
9007;SDS011;62813;51.424;6.762;2022-12-17T07:53:00;40.03;;;19.50;;
9007;SDS011;62813;51.424;6.762;2022-12-17T07:55:46;46.37;;;20.00;;
9007;SDS011;62813;51.424;6.762;2022-12-17T07:58:33;41.40;;;19.47;;
9007;SDS011;62813;51.424;6.762;2022-12-17T08:01:18;38.07;;;19.17;;
9007;SDS011;62813;51.424;6.762;2022-12-17T08:04:03;47.67;;;20.43;;
9007;SDS011;62813;51.424;6.762;2022-12-17T08:06:49;42.07;;;20.43;;
9007;SDS011;62813;51.424;6.762;2022-12-17T08:09:39;39.03;;;18.13;;
9007;SDS011;62813;51.424;6.762;2022-12-17T08:12:24;38.93;;;19.30;;
9007;SDS011;62813;51.424;6.762;2022-12-17T08:15:09;41.73;;;19.60;;
9007;SDS011;62813;51.424;6.762;2022-12-17T08:18:01;40.50;;;19.23;;
9007;SDS011;62813;51.424;6.762;2022-12-17T08:20:52;43.77;;;20.37;;
9007;SDS011;62813;51.424;6.762;2022-12-17T08:23:37;39.63;;;18.87;;
9007;SDS011;62813;51.424;6.762;2022-12-17T08:26:22;47.03;;;20.13;;
9007;SDS011;62813;51.424;6.762;2022-12-17T08:29:13;45.50;;;20.43;;
9007;SDS011;62813;51.424;6.762;2022-12-17T08:31:58;42.37;;;20.67;;
9007;SDS011;62813;51.424;6.762;2022-12-17T08:34:42;40.80;;;19.03;;
9007;SDS011;62813;51.424;6.762;2022-12-17T08:37:27;43.90;;;20.40;;
9007;SDS011;62813;51.424;6.762;2022-12-17T08:40:14;46.13;;;20.97;;
9007;SDS011;62813;51.424;6.762;2022-12-17T08:42:59;45.70;;;19.83;;
9007;SDS011;62813;51.424;6.762;2022-12-17T08:45:45;38.87;;;18.97;;
9007;SDS011;62813;51.424;6.762;2022-12-17T08:48:31;38.47;;;18.03;;
9007;SDS011;62813;51.424;6.762;2022-12-17T08:51:17;38.90;;;18.77;;
9007;SDS011;62813;51.424;6.762;2022-12-17T08:54:02;39.23;;;19.13;;
9007;SDS011;62813;51.424;6.762;2022-12-17T08:56:47;41.00;;;19.00;;
9007;SDS011;62813;51.424;6.762;2022-12-17T08:59:32;39.30;;;18.87;;
9007;SDS011;62813;51.424;6.762;2022-12-17T09:02:18;34.40;;;17.03;;
9007;SDS011;62813;51.424;6.762;2022-12-17T09:05:04;35.80;;;17.57;;
9007;SDS011;62813;51.424;6.762;2022-12-17T09:07:56;36.50;;;18.00;;
9007;SDS011;62813;51.424;6.762;2022-12-17T09:10:51;37.47;;;18.80;;
9007;SDS011;62813;51.424;6.762;2022-12-17T09:13:36;35.47;;;17.70;;
9007;SDS011;62813;51.424;6.762;2022-12-17T09:16:21;37.23;;;17.83;;
9007;SDS011;62813;51.424;6.762;2022-12-17T09:19:08;37.03;;;17.50;;
9007;SDS011;62813;51.424;6.762;2022-12-17T09:21:54;34.80;;;17.50;;
9007;SDS011;62813;51.424;6.762;2022-12-17T09:24:42;39.07;;;19.53;;
9007;SDS011;62813;51.424;6.762;2022-12-17T09:27:27;35.83;;;18.00;;
9007;SDS011;62813;51.424;6.762;2022-12-17T09:30:12;35.50;;;17.57;;
9007;SDS011;62813;51.424;6.762;2022-12-17T09:32:57;35.90;;;17.47;;
9007;SDS011;62813;51.424;6.762;2022-12-17T09:35:42;39.77;;;18.83;;
9007;SDS011;62813;51.424;6.762;2022-12-17T09:38:27;35.00;;;17.13;;
9007;SDS011;62813;51.424;6.762;2022-12-17T09:41:14;36.47;;;17.90;;
9007;SDS011;62813;51.424;6.762;2022-12-17T09:50:12;30.43;;;14.57;;
9007;SDS011;62813;51.424;6.762;2022-12-17T09:52:59;34.37;;;16.13;;
9007;SDS011;62813;51.424;6.762;2022-12-17T09:55:50;27.10;;;15.13;;
9007;SDS011;62813;51.424;6.762;2022-12-17T09:58:38;30.37;;;15.80;;
9007;SDS011;62813;51.424;6.762;2022-12-17T10:01:25;28.43;;;14.80;;
9007;SDS011;62813;51.424;6.762;2022-12-17T10:04:18;26.40;;;14.90;;
9007;SDS011;62813;51.424;6.762;2022-12-17T10:07:14;26.03;;;14.00;;
9007;SDS011;62813;51.424;6.762;2022-12-17T10:10:14;26.23;;;15.17;;
9007;SDS011;62813;51.424;6.762;2022-12-17T10:13:15;26.80;;;14.57;;
9007;SDS011;62813;51.424;6.762;2022-12-17T10:16:15;22.80;;;12.90;;
9007;SDS011;62813;51.424;6.762;2022-12-17T10:19:05;28.40;;;14.73;;
9007;SDS011;62813;51.424;6.762;2022-12-17T10:22:06;27.77;;;15.70;;
9007;SDS011;62813;51.424;6.762;2022-12-17T10:24:55;29.00;;;15.37;;
9007;SDS011;62813;51.424;6.762;2022-12-17T10:27:40;28.47;;;15.00;;
9007;SDS011;62813;51.424;6.762;2022-12-17T10:30:25;31.03;;;15.70;;
9007;SDS011;62813;51.424;6.762;2022-12-17T10:33:14;27.63;;;14.30;;
9007;SDS011;62813;51.424;6.762;2022-12-17T10:36:04;28.50;;;15.47;;
9007;SDS011;62813;51.424;6.762;2022-12-17T10:39:03;33.03;;;16.60;;
9007;SDS011;62813;51.424;6.762;2022-12-17T10:41:49;35.30;;;17.53;;
9007;SDS011;62813;51.424;6.762;2022-12-17T10:44:36;29.07;;;14.67;;
9007;SDS011;62813;51.424;6.762;2022-12-17T10:47:25;34.70;;;16.73;;
9007;SDS011;62813;51.424;6.762;2022-12-17T10:50:17;31.27;;;16.67;;
9007;SDS011;62813;51.424;6.762;2022-12-17T10:53:05;30.10;;;15.80;;
9007;SDS011;62813;51.424;6.762;2022-12-17T10:56:02;30.17;;;15.30;;
9007;SDS011;62813;51.424;6.762;2022-12-17T10:58:49;27.53;;;14.40;;
9007;SDS011;62813;51.424;6.762;2022-12-17T11:01:39;30.40;;;16.10;;
9007;SDS011;62813;51.424;6.762;2022-12-17T11:04:30;30.47;;;15.70;;
9007;SDS011;62813;51.424;6.762;2022-12-17T11:07:20;32.07;;;16.37;;
9007;SDS011;62813;51.424;6.762;2022-12-17T11:10:24;31.97;;;15.37;;
9007;SDS011;62813;51.424;6.762;2022-12-17T11:13:14;31.30;;;14.97;;
9007;SDS011;62813;51.424;6.762;2022-12-17T11:19:49;28.43;;;13.50;;
9007;SDS011;62813;51.424;6.762;2022-12-17T11:22:56;34.40;;;15.17;;
9007;SDS011;62813;51.424;6.762;2022-12-17T11:25:46;29.60;;;14.87;;
9007;SDS011;62813;51.424;6.762;2022-12-17T11:28:34;29.57;;;16.73;;
9007;SDS011;62813;51.424;6.762;2022-12-17T11:38:02;31.40;;;17.67;;
9007;SDS011;62813;51.424;6.762;2022-12-17T11:44:01;32.53;;;17.27;;
9007;SDS011;62813;51.424;6.762;2022-12-17T11:47:15;33.80;;;17.73;;
9007;SDS011;62813;51.424;6.762;2022-12-17T11:50:06;31.93;;;15.93;;
9007;SDS011;62813;51.424;6.762;2022-12-17T11:56:15;35.17;;;18.40;;
9007;SDS011;62813;51.424;6.762;2022-12-17T12:15:28;34.20;;;17.93;;
9007;SDS011;62813;51.424;6.762;2022-12-17T12:30:42;31.30;;;17.87;;
9007;SDS011;62813;51.424;6.762;2022-12-17T12:33:32;36.80;;;18.80;;
9007;SDS011;62813;51.424;6.762;2022-12-17T12:36:37;33.37;;;17.97;;
9007;SDS011;62813;51.424;6.762;2022-12-17T12:39:29;33.63;;;18.80;;
9007;SDS011;62813;51.424;6.762;2022-12-17T12:42:30;38.10;;;20.37;;
9007;SDS011;62813;51.424;6.762;2022-12-17T12:45:57;37.03;;;19.10;;
9007;SDS011;62813;51.424;6.762;2022-12-17T12:51:40;33.53;;;20.03;;
9007;SDS011;62813;51.424;6.762;2022-12-17T12:54:28;37.07;;;18.37;;
9007;SDS011;62813;51.424;6.762;2022-12-17T12:57:28;33.03;;;18.87;;
9007;SDS011;62813;51.424;6.762;2022-12-17T13:00:30;37.17;;;19.70;;
9007;SDS011;62813;51.424;6.762;2022-12-17T13:06:12;37.53;;;19.43;;
9007;SDS011;62813;51.424;6.762;2022-12-17T13:08:41;38.80;;;19.57;;
9007;SDS011;62813;51.424;6.762;2022-12-17T13:11:08;37.07;;;19.60;;
9007;SDS011;62813;51.424;6.762;2022-12-17T13:13:50;36.13;;;19.53;;
9007;SDS011;62813;51.424;6.762;2022-12-17T13:16:40;33.93;;;18.30;;
9007;SDS011;62813;51.424;6.762;2022-12-17T13:24:50;36.27;;;19.20;;
9007;SDS011;62813;51.424;6.762;2022-12-17T13:27:26;35.10;;;18.47;;
9007;SDS011;62813;51.424;6.762;2022-12-17T13:42:04;31.43;;;17.33;;
9007;SDS011;62813;51.424;6.762;2022-12-17T13:44:43;31.60;;;17.87;;
9007;SDS011;62813;51.424;6.762;2022-12-17T13:47:25;36.10;;;19.73;;
9007;SDS011;62813;51.424;6.762;2022-12-17T13:49:56;30.43;;;17.97;;
9007;SDS011;62813;51.424;6.762;2022-12-17T13:52:44;32.93;;;18.43;;
9007;SDS011;62813;51.424;6.762;2022-12-17T13:55:21;34.07;;;19.20;;
9007;SDS011;62813;51.424;6.762;2022-12-17T13:57:51;33.97;;;19.13;;
9007;SDS011;62813;51.424;6.762;2022-12-17T14:00:23;34.20;;;19.50;;
9007;SDS011;62813;51.424;6.762;2022-12-17T14:02:50;32.83;;;19.37;;
9007;SDS011;62813;51.424;6.762;2022-12-17T14:05:34;34.00;;;19.07;;
9007;SDS011;62813;51.424;6.762;2022-12-17T14:08:03;36.10;;;20.17;;
9007;SDS011;62813;51.424;6.762;2022-12-17T14:10:31;31.50;;;18.83;;
9007;SDS011;62813;51.424;6.762;2022-12-17T14:13:05;31.73;;;18.20;;
9007;SDS011;62813;51.424;6.762;2022-12-17T14:15:33;33.57;;;18.90;;
9007;SDS011;62813;51.424;6.762;2022-12-17T14:18:00;33.20;;;19.77;;
9007;SDS011;62813;51.424;6.762;2022-12-17T14:20:28;33.03;;;19.53;;
9007;SDS011;62813;51.424;6.762;2022-12-17T14:23:00;30.13;;;19.07;;
9007;SDS011;62813;51.424;6.762;2022-12-17T14:25:35;30.57;;;18.83;;
9007;SDS011;62813;51.424;6.762;2022-12-17T14:34:04;31.47;;;18.17;;
9007;SDS011;62813;51.424;6.762;2022-12-17T14:36:37;26.77;;;17.60;;
9007;SDS011;62813;51.424;6.762;2022-12-17T14:39:17;30.43;;;19.20;;
9007;SDS011;62813;51.424;6.762;2022-12-17T14:41:47;28.70;;;17.63;;
9007;SDS011;62813;51.424;6.762;2022-12-17T14:44:33;30.73;;;18.43;;
9007;SDS011;62813;51.424;6.762;2022-12-17T14:53:22;32.73;;;18.77;;
9007;SDS011;62813;51.424;6.762;2022-12-17T14:55:22;29.67;;;16.80;;
9007;SDS011;62813;51.424;6.762;2022-12-17T14:58:07;28.17;;;17.93;;
9007;SDS011;62813;51.424;6.762;2022-12-17T15:00:44;27.33;;;16.87;;
9007;SDS011;62813;51.424;6.762;2022-12-17T15:03:24;32.27;;;17.70;;
9007;SDS011;62813;51.424;6.762;2022-12-17T15:05:57;27.33;;;17.13;;
9007;SDS011;62813;51.424;6.762;2022-12-17T15:08:31;26.67;;;16.63;;
9007;SDS011;62813;51.424;6.762;2022-12-17T15:11:18;27.90;;;16.60;;
9007;SDS011;62813;51.424;6.762;2022-12-17T15:13:46;31.07;;;16.70;;
9007;SDS011;62813;51.424;6.762;2022-12-17T15:16:21;27.83;;;16.97;;
9007;SDS011;62813;51.424;6.762;2022-12-17T15:18:47;31.70;;;18.00;;
9007;SDS011;62813;51.424;6.762;2022-12-17T15:21:14;28.73;;;18.17;;
9007;SDS011;62813;51.424;6.762;2022-12-17T15:23:43;34.93;;;17.63;;
9007;SDS011;62813;51.424;6.762;2022-12-17T15:26:10;27.47;;;16.47;;
9007;SDS011;62813;51.424;6.762;2022-12-17T15:28:37;27.93;;;17.77;;
9007;SDS011;62813;51.424;6.762;2022-12-17T15:31:04;28.30;;;16.47;;
9007;SDS011;62813;51.424;6.762;2022-12-17T15:33:31;29.87;;;17.37;;
9007;SDS011;62813;51.424;6.762;2022-12-17T15:35:57;28.33;;;16.47;;
9007;SDS011;62813;51.424;6.762;2022-12-17T15:38:24;29.53;;;17.07;;
9007;SDS011;62813;51.424;6.762;2022-12-17T15:40:51;30.70;;;17.67;;
9007;SDS011;62813;51.424;6.762;2022-12-17T15:43:17;28.20;;;17.47;;
9007;SDS011;62813;51.424;6.762;2022-12-17T15:45:47;30.30;;;18.23;;
9007;SDS011;62813;51.424;6.762;2022-12-17T15:48:17;29.03;;;17.80;;
9007;SDS011;62813;51.424;6.762;2022-12-17T15:50:45;26.33;;;16.57;;
9007;SDS011;62813;51.424;6.762;2022-12-17T15:53:13;30.03;;;17.43;;
9007;SDS011;62813;51.424;6.762;2022-12-17T15:55:39;29.13;;;18.00;;
9007;SDS011;62813;51.424;6.762;2022-12-17T15:58:07;30.03;;;18.03;;
9007;SDS011;62813;51.424;6.762;2022-12-17T16:00:36;25.07;;;16.43;;
9007;SDS011;62813;51.424;6.762;2022-12-17T16:03:04;27.00;;;16.70;;
9007;SDS011;62813;51.424;6.762;2022-12-17T16:05:30;26.73;;;16.53;;
9007;SDS011;62813;51.424;6.762;2022-12-17T16:07:57;26.23;;;17.00;;
9007;SDS011;62813;51.424;6.762;2022-12-17T16:10:27;32.30;;;19.40;;
9007;SDS011;62813;51.424;6.762;2022-12-17T16:12:54;29.20;;;17.47;;
9007;SDS011;62813;51.424;6.762;2022-12-17T16:15:20;27.83;;;17.60;;
9007;SDS011;62813;51.424;6.762;2022-12-17T16:17:47;29.43;;;18.00;;
9007;SDS011;62813;51.424;6.762;2022-12-17T16:20:13;31.77;;;17.83;;
9007;SDS011;62813;51.424;6.762;2022-12-17T16:22:40;28.87;;;17.20;;
9007;SDS011;62813;51.424;6.762;2022-12-17T16:25:07;30.70;;;18.33;;
9007;SDS011;62813;51.424;6.762;2022-12-17T16:27:33;31.43;;;18.77;;
9007;SDS011;62813;51.424;6.762;2022-12-17T16:30:00;30.80;;;18.83;;
9007;SDS011;62813;51.424;6.762;2022-12-17T16:32:28;33.17;;;19.70;;
9007;SDS011;62813;51.424;6.762;2022-12-17T16:35:01;31.53;;;18.90;;
9007;SDS011;62813;51.424;6.762;2022-12-17T16:37:30;29.03;;;18.23;;
9007;SDS011;62813;51.424;6.762;2022-12-17T16:39:57;29.37;;;19.60;;
9007;SDS011;62813;51.424;6.762;2022-12-17T16:42:25;35.50;;;21.20;;
9007;SDS011;62813;51.424;6.762;2022-12-17T16:44:52;35.23;;;19.97;;
9007;SDS011;62813;51.424;6.762;2022-12-17T16:47:18;34.77;;;21.00;;
9007;SDS011;62813;51.424;6.762;2022-12-17T16:49:45;34.97;;;21.33;;
9007;SDS011;62813;51.424;6.762;2022-12-17T16:52:11;31.10;;;19.73;;
9007;SDS011;62813;51.424;6.762;2022-12-17T16:54:38;35.87;;;20.93;;
9007;SDS011;62813;51.424;6.762;2022-12-17T16:57:04;33.80;;;19.20;;
9007;SDS011;62813;51.424;6.762;2022-12-17T16:59:31;34.10;;;20.30;;
9007;SDS011;62813;51.424;6.762;2022-12-17T17:01:57;33.07;;;19.63;;
9007;SDS011;62813;51.424;6.762;2022-12-17T17:04:25;33.10;;;20.20;;
9007;SDS011;62813;51.424;6.762;2022-12-17T17:06:53;28.30;;;17.23;;
9007;SDS011;62813;51.424;6.762;2022-12-17T17:09:22;34.83;;;18.63;;
9007;SDS011;62813;51.424;6.762;2022-12-17T17:11:50;31.50;;;19.20;;
9007;SDS011;62813;51.424;6.762;2022-12-17T17:14:21;32.87;;;18.87;;
9007;SDS011;62813;51.424;6.762;2022-12-17T17:16:49;31.57;;;18.40;;
9007;SDS011;62813;51.424;6.762;2022-12-17T17:19:16;32.70;;;19.63;;
9007;SDS011;62813;51.424;6.762;2022-12-17T17:21:50;32.10;;;20.07;;
9007;SDS011;62813;51.424;6.762;2022-12-17T17:24:19;35.97;;;21.73;;
9007;SDS011;62813;51.424;6.762;2022-12-17T17:26:49;42.40;;;22.80;;
9007;SDS011;62813;51.424;6.762;2022-12-17T17:29:17;35.30;;;21.33;;
9007;SDS011;62813;51.424;6.762;2022-12-17T17:31:44;37.20;;;22.80;;
9007;SDS011;62813;51.424;6.762;2022-12-17T17:34:30;29.37;;;19.50;;
9007;SDS011;62813;51.424;6.762;2022-12-17T17:36:57;33.50;;;20.70;;
9007;SDS011;62813;51.424;6.762;2022-12-17T17:39:23;35.80;;;19.90;;
9007;SDS011;62813;51.424;6.762;2022-12-17T17:41:50;35.97;;;20.63;;
9007;SDS011;62813;51.424;6.762;2022-12-17T17:44:17;33.97;;;20.53;;
9007;SDS011;62813;51.424;6.762;2022-12-17T17:46:44;33.87;;;19.50;;
9007;SDS011;62813;51.424;6.762;2022-12-17T17:49:10;29.77;;;19.30;;